Time;durP1;ratioP1;P1;durP2;ratioP2;P2;SDS_P1;SDS_P2;PMS_P1;PMS_P2;Temp;Humidity;BMP_temperature;BMP_pressure;BME280_temperature;BME280_humidity;BME280_pressure;Samples;Min_cycle;Max_cycle;Signal;HPM_P1;HPM_P2
2021/06/24 00:01:29;;;;;;;;;;;13.10;99.90;;;;;;5101047;27;19920;-84
2021/06/24 00:03:56;;;;;;;;;;;13.10;99.90;;;;;;5131380;27;19919;-83
2021/06/24 00:06:22;;;;;;;;;;;13.10;99.90;;;;;;5126455;27;20260;-84
2021/06/24 00:08:47;;;;;;;;;;;13.00;99.90;;;;;;5114290;27;20362;-83
2021/06/24 00:11:13;;;;;;;;;;;13.00;99.90;;;;;;5130973;27;19919;-84
2021/06/24 00:13:39;;;;;;;;;;;12.90;99.90;;;;;;5129534;27;20574;-83
2021/06/24 00:16:05;;;;;;;;;;;12.90;99.90;;;;;;5124367;27;20343;-84
2021/06/24 00:18:31;;;;;;;;;;;12.80;99.90;;;;;;5131217;27;19915;-84
2021/06/24 00:20:57;;;;;;;;;;;12.80;99.90;;;;;;5114021;27;19919;-83
2021/06/24 00:23:23;;;;;;;;;;;12.80;99.90;;;;;;5131947;27;19919;-83
2021/06/24 00:25:49;;;;;;;;;;;12.70;99.90;;;;;;5123817;27;19924;-83
2021/06/24 00:28:16;;;;;;;;;;;12.70;99.90;;;;;;5130788;27;19919;-83
2021/06/24 00:30:43;;;;;;;;;;;12.70;99.90;;;;;;5131231;27;19923;-83
2021/06/24 00:33:09;;;;;;;;;;;12.80;99.90;;;;;;5125997;27;19959;-84
2021/06/24 00:35:34;;;;;;;;;;;12.80;99.90;;;;;;5086146;27;19961;-84
2021/06/24 00:38:04;;;;;;;;;;;12.80;99.90;;;;;;5128748;27;19919;-84
2021/06/24 00:40:33;;;;;;;;;;;12.80;99.90;;;;;;5119483;27;19966;-84
2021/06/24 00:42:59;;;;;;;;;;;12.70;99.90;;;;;;5130240;27;19976;-84
2021/06/24 00:45:25;;;;;;;;;;;12.70;99.90;;;;;;5123966;27;19923;-83
2021/06/24 00:47:51;;;;;;;;;;;12.70;99.90;;;;;;5129314;27;20343;-84
2021/06/24 00:50:16;;;;;;;;;;;12.60;99.90;;;;;;5130779;27;19926;-84
2021/06/24 00:52:42;;;;;;;;;;;12.50;99.90;;;;;;5131593;27;20001;-83
2021/06/24 00:55:08;;;;;;;;;;;12.60;99.90;;;;;;5112836;27;19919;-84
2021/06/24 00:57:35;;;;;;;;;;;12.60;99.90;;;;;;5122381;27;19923;-83
2021/06/24 01:00:02;;;;;;;;;;;12.70;99.90;;;;;;5121681;27;19919;-84
2021/06/24 01:02:28;;;;;;;;;;;12.60;99.90;;;;;;5119592;27;19919;-84
2021/06/24 01:04:54;;;;;;;;;;;12.60;99.90;;;;;;5129027;27;19920;-83
2021/06/24 01:07:19;;;;;;;;;;;12.50;99.90;;;;;;5109263;28;20292;-84
2021/06/24 01:09:46;;;;;;;;;;;12.60;99.90;;;;;;5100636;27;20370;-83
2021/06/24 01:12:11;;;;;;;;;;;12.60;99.90;;;;;;5109988;28;19916;-83
2021/06/24 01:14:37;;;;;;;;;;;12.50;99.90;;;;;;5093353;28;19949;-84
2021/06/24 01:17:03;;;;;;;;;;;12.40;99.90;;;;;;5103051;27;19942;-83
2021/06/24 01:19:29;;;;;;;;;;;12.30;99.90;;;;;;5129451;27;19915;-83
2021/06/24 01:21:56;;;;;;;;;;;12.30;99.90;;;;;;5130658;27;20651;-84
2021/06/24 01:24:22;;;;;;;;;;;12.30;99.90;;;;;;5100951;27;19923;-84
2021/06/24 01:26:48;;;;;;;;;;;12.30;99.90;;;;;;5128253;27;20015;-83
2021/06/24 01:29:14;;;;;;;;;;;12.30;99.90;;;;;;5098724;27;20024;-84
2021/06/24 01:31:40;;;;;;;;;;;12.20;99.90;;;;;;5136147;27;19923;-83
2021/06/24 01:34:07;;;;;;;;;;;12.20;99.90;;;;;;5132843;27;20388;-83
2021/06/24 01:36:33;;;;;;;;;;;12.20;99.90;;;;;;5110538;27;19915;-83
2021/06/24 01:38:58;;;;;;;;;;;12.10;99.90;;;;;;5131181;27;20108;-84
2021/06/24 01:41:24;;;;;;;;;;;12.10;99.90;;;;;;5133142;27;19918;-82
2021/06/24 01:43:50;;;;;;;;;;;12.20;99.90;;;;;;5115671;27;19967;-83
2021/06/24 01:46:16;;;;;;;;;;;12.20;99.90;;;;;;5151375;27;20002;-83
2021/06/24 01:48:41;;;;;;;;;;;12.10;99.90;;;;;;5115554;27;20643;-84
2021/06/24 01:51:08;;;;;;;;;;;12.20;99.90;;;;;;5110576;27;19919;-84
2021/06/24 01:53:33;;;;;;;;;;;12.20;99.90;;;;;;5120111;27;19941;-84
2021/06/24 01:55:59;;;;;;;;;;;12.20;99.90;;;;;;5132903;27;20421;-84
2021/06/24 01:58:27;;;;;;;;;;;12.30;99.90;;;;;;5132216;27;19999;-83
2021/06/24 02:00:57;;;;;;;;;;;12.20;99.90;;;;;;5132138;27;19922;-83
2021/06/24 02:03:23;;;;;;;;;;;12.20;99.90;;;;;;5101889;27;20319;-83
2021/06/24 02:05:50;;;;;;;;;;;12.20;99.90;;;;;;5114091;27;19923;-83
2021/06/24 02:08:17;;;;;;;;;;;12.20;99.90;;;;;;5114952;27;20453;-84
2021/06/24 02:10:43;;;;;;;;;;;12.10;99.90;;;;;;5132916;27;20017;-84
2021/06/24 02:13:09;;;;;;;;;;;12.10;99.90;;;;;;5132981;27;19927;-84
2021/06/24 02:15:34;;;;;;;;;;;12.10;99.90;;;;;;5106984;27;19919;-84
2021/06/24 02:18:00;;;;;;;;;;;12.10;99.90;;;;;;5114496;27;19934;-84
2021/06/24 02:20:26;;;;;;;;;;;12.20;99.90;;;;;;5114569;27;20021;-84
2021/06/24 02:22:52;;;;;;;;;;;12.20;99.90;;;;;;5133098;27;19931;-84
2021/06/24 02:25:18;;;;;;;;;;;12.20;99.90;;;;;;5131708;27;19923;-84
2021/06/24 02:27:44;;;;;;;;;;;12.20;99.90;;;;;;5122373;27;19972;-83
2021/06/24 02:30:11;;;;;;;;;;;12.20;99.90;;;;;;5111198;27;20067;-84
2021/06/24 02:32:36;;;;;;;;;;;12.10;99.90;;;;;;5149869;27;19922;-83
2021/06/24 02:35:03;;;;;;;;;;;12.10;99.90;;;;;;5119378;27;19915;-84
2021/06/24 02:37:29;;;;;;;;;;;12.20;99.90;;;;;;5112603;27;19938;-84
2021/06/24 02:39:54;;;;;;;;;;;12.20;99.90;;;;;;5132180;27;19942;-84
2021/06/24 02:42:20;;;;;;;;;;;12.20;99.90;;;;;;5136338;27;19922;-83
2021/06/24 02:44:46;;;;;;;;;;;12.10;99.90;;;;;;5147972;27;19923;-84
2021/06/24 02:47:11;;;;;;;;;;;12.00;99.90;;;;;;5115016;27;20294;-84
2021/06/24 02:49:37;;;;;;;;;;;12.10;99.90;;;;;;5096675;27;20027;-84
2021/06/24 02:52:03;;;;;;;;;;;12.10;99.90;;;;;;5132456;27;19933;-84
2021/06/24 02:54:29;;;;;;;;;;;12.10;99.90;;;;;;5131816;27;19919;-84
2021/06/24 02:56:58;;;;;;;;;;;12.10;99.90;;;;;;5128808;27;19919;-84
2021/06/24 02:59:25;;;;;;;;;;;12.10;99.90;;;;;;5123651;27;20465;-84
2021/06/24 03:01:51;;;;;;;;;;;12.00;99.90;;;;;;5104611;28;19915;-84
2021/06/24 03:04:21;;;;;;;;;;;12.00;99.90;;;;;;5124116;27;19918;-82
2021/06/24 03:06:47;;;;;;;;;;;11.90;99.90;;;;;;5086693;27;20446;-84
2021/06/24 03:09:13;;;;;;;;;;;11.90;99.90;;;;;;5131384;27;19942;-84
2021/06/24 03:11:38;;;;;;;;;;;12.00;99.90;;;;;;5111322;28;20382;-84
2021/06/24 03:14:04;;;;;;;;;;;11.90;99.90;;;;;;5094970;28;19924;-83
2021/06/24 03:16:30;;;;;;;;;;;11.90;99.90;;;;;;5126234;27;20366;-83
2021/06/24 03:18:56;;;;;;;;;;;11.90;99.90;;;;;;5131468;27;19915;-84
2021/06/24 03:21:22;;;;;;;;;;;11.90;99.90;;;;;;5131855;27;19919;-83
2021/06/24 03:23:47;;;;;;;;;;;11.90;99.90;;;;;;5150953;27;19919;-83
2021/06/24 03:26:13;;;;;;;;;;;11.90;99.90;;;;;;5130295;27;20038;-83
2021/06/24 03:28:39;;;;;;;;;;;12.00;99.90;;;;;;5149313;27;19976;-84
2021/06/24 03:31:05;;;;;;;;;;;12.00;99.90;;;;;;5127353;27;20401;-84
2021/06/24 03:33:31;;;;;;;;;;;12.00;99.90;;;;;;5124745;28;19919;-84
2021/06/24 03:35:56;;;;;;;;;;;11.90;99.90;;;;;;5105375;27;20022;-84
2021/06/24 03:38:22;;;;;;;;;;;11.90;99.90;;;;;;5130960;27;19967;-83
2021/06/24 03:40:48;;;;;;;;;;;11.90;99.90;;;;;;5125549;27;19964;-83
2021/06/24 03:43:13;;;;;;;;;;;11.90;99.90;;;;;;5109736;28;20662;-84
2021/06/24 03:45:40;;;;;;;;;;;11.90;99.90;;;;;;5114486;27;19926;-84
2021/06/24 03:48:06;;;;;;;;;;;11.90;99.90;;;;;;5148772;27;19923;-84
2021/06/24 03:50:32;;;;;;;;;;;11.90;99.90;;;;;;5131867;27;19960;-84
2021/06/24 03:52:57;;;;;;;;;;;11.90;99.90;;;;;;5132226;27;19938;-83
2021/06/24 03:55:43;;;;;;;;;;;11.90;99.90;;;;;;5107848;28;19916;-84
2021/06/24 03:58:10;;;;;;;;;;;11.90;99.90;;;;;;5130293;27;20014;-84
2021/06/24 04:00:44;;;;;;;;;;;12.00;99.90;;;;;;5113186;27;19927;-84
2021/06/24 04:03:10;;;;;;;;;;;12.10;99.90;;;;;;5115422;27;19942;-84
2021/06/24 04:05:36;;;;;;;;;;;12.10;99.90;;;;;;5131543;27;20022;-84
2021/06/24 04:08:03;;;;;;;;;;;12.20;99.90;;;;;;5130610;27;19968;-83
2021/06/24 04:10:29;;;;;;;;;;;12.20;99.90;;;;;;5131694;27;19926;-84
2021/06/24 04:12:56;;;;;;;;;;;12.20;99.90;;;;;;5131330;27;19919;-84
2021/06/24 04:15:22;;;;;;;;;;;12.20;99.90;;;;;;5127352;27;19923;-84
2021/06/24 04:17:48;;;;;;;;;;;12.20;99.90;;;;;;5131593;27;20497;-84
2021/06/24 04:20:14;;;;;;;;;;;12.30;99.90;;;;;;5117714;27;20017;-84
2021/06/24 04:22:40;;;;;;;;;;;12.30;99.90;;;;;;5135029;27;19942;-84
2021/06/24 04:25:06;;;;;;;;;;;12.40;99.90;;;;;;5114257;27;20390;-84
2021/06/24 04:27:32;;;;;;;;;;;12.50;99.90;;;;;;5115484;27;19934;-84
2021/06/24 04:29:57;;;;;;;;;;;12.60;99.90;;;;;;5113607;27;19983;-84
2021/06/24 04:32:23;;;;;;;;;;;12.50;99.90;;;;;;5129530;27;19919;-84
2021/06/24 04:34:48;;;;;;;;;;;12.60;99.90;;;;;;5117474;27;20651;-84
2021/06/24 04:37:14;;;;;;;;;;;12.60;99.90;;;;;;5133516;27;20031;-83
2021/06/24 04:39:40;;;;;;;;;;;12.70;99.90;;;;;;5110513;27;19922;-84
2021/06/24 04:42:06;;;;;;;;;;;12.70;99.90;;;;;;5150653;27;19915;-84
2021/06/24 04:44:32;;;;;;;;;;;12.70;99.90;;;;;;5153236;27;20367;-84
2021/06/24 04:46:57;;;;;;;;;;;12.70;99.90;;;;;;5131931;27;20540;-84
2021/06/24 04:49:24;;;;;;;;;;;12.70;99.90;;;;;;5112681;27;19957;-84
2021/06/24 04:51:50;;;;;;;;;;;12.70;99.90;;;;;;5101944;27;19944;-84
2021/06/24 04:54:15;;;;;;;;;;;12.70;99.90;;;;;;5149331;27;20396;-83
2021/06/24 04:56:41;;;;;;;;;;;12.70;99.90;;;;;;5121283;27;19997;-83
2021/06/24 04:59:07;;;;;;;;;;;12.80;99.90;;;;;;5133643;27;19964;-84
2021/06/24 05:01:33;;;;;;;;;;;12.80;99.90;;;;;;5112382;27;19923;-83
2021/06/24 05:04:00;;;;;;;;;;;12.90;99.90;;;;;;5119950;27;20034;-83
2021/06/24 05:06:25;;;;;;;;;;;12.80;99.90;;;;;;5119062;27;20402;-83
2021/06/24 05:08:51;;;;;;;;;;;12.80;99.90;;;;;;5116463;27;20366;-83
2021/06/24 05:11:17;;;;;;;;;;;12.80;99.90;;;;;;5111521;27;19923;-83
2021/06/24 05:13:43;;;;;;;;;;;12.90;99.90;;;;;;5115359;27;20373;-84
2021/06/24 05:16:10;;;;;;;;;;;12.80;99.90;;;;;;5114083;27;19919;-84
2021/06/24 05:18:36;;;;;;;;;;;12.90;99.90;;;;;;5129544;27;19925;-83
2021/06/24 05:21:02;;;;;;;;;;;12.90;99.90;;;;;;5130663;27;19919;-84
2021/06/24 05:23:28;;;;;;;;;;;13.00;99.90;;;;;;5148699;27;19924;-84
2021/06/24 05:25:54;;;;;;;;;;;13.00;99.90;;;;;;5131169;27;20418;-84
2021/06/24 05:28:19;;;;;;;;;;;13.00;99.90;;;;;;5011254;27;19924;-84
2021/06/24 05:30:48;;;;;;;;;;;13.10;99.90;;;;;;5107132;28;20001;-84
2021/06/24 05:33:14;;;;;;;;;;;13.10;99.90;;;;;;5109451;28;19919;-84
2021/06/24 05:35:40;;;;;;;;;;;13.20;99.90;;;;;;5100876;28;19924;-84
2021/06/24 05:38:10;;;;;;;;;;;13.20;99.90;;;;;;5109501;28;19960;-83
2021/06/24 05:40:37;;;;;;;;;;;13.30;99.90;;;;;;5087661;28;19919;-83
2021/06/24 05:43:03;;;;;;;;;;;13.40;99.90;;;;;;5108943;28;19958;-84
2021/06/24 05:45:29;;;;;;;;;;;13.40;99.90;;;;;;5109441;28;19916;-84
2021/06/24 05:47:55;;;;;;;;;;;13.40;99.90;;;;;;5126411;27;19924;-84
2021/06/24 05:50:22;;;;;;;;;;;13.50;99.90;;;;;;5111035;28;19915;-83
2021/06/24 05:52:47;;;;;;;;;;;13.50;99.90;;;;;;5109170;28;19919;-84
2021/06/24 05:55:13;;;;;;;;;;;13.50;99.90;;;;;;5110649;28;19923;-84
2021/06/24 05:57:39;;;;;;;;;;;13.60;99.90;;;;;;5088408;28;19927;-84
2021/06/24 06:00:05;;;;;;;;;;;13.60;99.90;;;;;;5088933;28;19916;-84
2021/06/24 06:02:32;;;;;;;;;;;13.70;99.90;;;;;;5108364;28;19920;-84
2021/06/24 06:04:59;;;;;;;;;;;13.70;99.90;;;;;;5125746;27;19923;-84
2021/06/24 06:07:25;;;;;;;;;;;13.80;99.90;;;;;;5108234;28;20721;-83
2021/06/24 06:09:51;;;;;;;;;;;13.80;99.90;;;;;;5099356;28;19923;-84
2021/06/24 06:12:17;;;;;;;;;;;13.80;99.90;;;;;;5102719;28;20452;-84
2021/06/24 06:14:42;;;;;;;;;;;13.90;99.90;;;;;;5091489;28;19958;-84
2021/06/24 06:17:08;;;;;;;;;;;13.90;99.90;;;;;;5092313;28;19926;-84
2021/06/24 06:19:34;;;;;;;;;;;13.90;99.90;;;;;;5125393;27;19970;-83
2021/06/24 06:22:00;;;;;;;;;;;13.90;99.90;;;;;;5108929;28;19924;-84
2021/06/24 06:24:25;;;;;;;;;;;14.00;99.90;;;;;;5109058;28;19988;-84
2021/06/24 06:26:51;;;;;;;;;;;14.00;99.90;;;;;;5082787;28;20505;-85
2021/06/24 06:29:17;;;;;;;;;;;14.00;99.90;;;;;;5108762;28;19961;-84
2021/06/24 06:31:43;;;;;;;;;;;14.10;99.90;;;;;;5108774;28;19923;-84
2021/06/24 06:34:09;;;;;;;;;;;14.10;99.90;;;;;;5087958;28;19935;-84
2021/06/24 06:36:35;;;;;;;;;;;14.20;99.90;;;;;;5108751;28;19937;-83
2021/06/24 06:39:01;;;;;;;;;;;14.20;99.90;;;;;;5124039;27;19920;-84
2021/06/24 06:41:27;;;;;;;;;;;14.30;99.90;;;;;;5108393;28;20022;-84
2021/06/24 06:43:52;;;;;;;;;;;14.30;99.90;;;;;;5109419;28;19941;-84
2021/06/24 06:46:18;;;;;;;;;;;14.40;99.90;;;;;;5077685;28;19932;-84
2021/06/24 06:48:45;;;;;;;;;;;14.30;99.90;;;;;;5091033;28;19958;-84
2021/06/24 06:51:11;;;;;;;;;;;14.40;99.90;;;;;;5104423;28;19956;-85
2021/06/24 06:53:37;;;;;;;;;;;14.40;99.90;;;;;;5091734;28;19955;-84
2021/06/24 06:56:03;;;;;;;;;;;14.50;99.90;;;;;;5108285;28;19967;-84
2021/06/24 06:58:29;;;;;;;;;;;14.50;99.90;;;;;;5109126;28;20290;-84
2021/06/24 07:00:55;;;;;;;;;;;14.40;99.90;;;;;;5109033;28;19916;-84
2021/06/24 07:03:21;;;;;;;;;;;14.50;99.90;;;;;;5091304;28;19969;-84
2021/06/24 07:05:47;;;;;;;;;;;14.50;99.90;;;;;;5082297;28;19920;-84
2021/06/24 07:08:12;;;;;;;;;;;14.60;99.90;;;;;;5092396;28;19926;-84
2021/06/24 07:10:38;;;;;;;;;;;14.60;99.90;;;;;;5126190;27;19926;-84
2021/06/24 07:13:04;;;;;;;;;;;14.70;99.90;;;;;;5108145;28;19923;-84
2021/06/24 07:15:30;;;;;;;;;;;14.70;99.90;;;;;;5074604;28;19912;-86
2021/06/24 07:17:56;;;;;;;;;;;14.70;99.90;;;;;;5086513;28;19920;-85
2021/06/24 07:20:21;;;;;;;;;;;14.70;99.90;;;;;;5104575;28;19998;-85
2021/06/24 07:22:47;;;;;;;;;;;14.80;99.90;;;;;;5090406;28;19920;-84
2021/06/24 07:25:17;;;;;;;;;;;14.80;99.90;;;;;;5106196;28;19915;-84
2021/06/24 07:27:44;;;;;;;;;;;14.90;99.90;;;;;;5106260;28;20370;-84
2021/06/24 07:30:11;;;;;;;;;;;14.90;99.90;;;;;;5089491;28;19919;-84
2021/06/24 07:32:36;;;;;;;;;;;14.90;99.90;;;;;;5106472;28;19923;-84
2021/06/24 07:35:02;;;;;;;;;;;14.90;99.90;;;;;;5105713;28;19927;-84
2021/06/24 07:37:28;;;;;;;;;;;14.90;99.90;;;;;;5087642;28;20018;-84
2021/06/24 07:39:54;;;;;;;;;;;14.90;99.90;;;;;;5106553;28;20014;-84
2021/06/24 07:42:20;;;;;;;;;;;15.00;99.90;;;;;;5123785;28;19927;-83
2021/06/24 07:44:46;;;;;;;;;;;15.00;99.90;;;;;;5105550;28;20608;-84
2021/06/24 07:47:12;;;;;;;;;;;15.00;99.90;;;;;;5123277;28;20569;-84
2021/06/24 07:49:38;;;;;;;;;;;15.00;99.90;;;;;;5074180;28;19920;-84
2021/06/24 07:52:04;;;;;;;;;;;15.10;99.90;;;;;;5099887;28;19920;-84
2021/06/24 07:54:29;;;;;;;;;;;15.10;99.90;;;;;;5107430;28;20347;-83
2021/06/24 07:56:55;;;;;;;;;;;15.20;99.90;;;;;;5095154;28;20014;-83
2021/06/24 07:59:21;;;;;;;;;;;15.30;99.90;;;;;;5110615;28;20286;-84
2021/06/24 08:01:47;;;;;;;;;;;15.30;99.90;;;;;;5110457;28;20405;-83
2021/06/24 08:04:13;;;;;;;;;;;15.40;99.90;;;;;;5092705;28;19929;-84
2021/06/24 08:06:39;;;;;;;;;;;15.40;99.90;;;;;;5109900;28;19950;-84
2021/06/24 08:09:06;;;;;;;;;;;15.50;99.90;;;;;;5093148;28;19962;-84
2021/06/24 08:11:31;;;;;;;;;;;15.50;99.90;;;;;;5091423;28;19927;-84
2021/06/24 08:13:57;;;;;;;;;;;15.50;99.90;;;;;;5109872;28;19920;-84
2021/06/24 08:16:25;;;;;;;;;;;15.60;99.90;;;;;;5087108;28;20022;-83
2021/06/24 08:18:51;;;;;;;;;;;15.60;99.90;;;;;;5110541;28;19959;-84
2021/06/24 08:21:16;;;;;;;;;;;15.50;99.90;;;;;;5111809;28;19954;-84
2021/06/24 08:23:42;;;;;;;;;;;15.50;99.90;;;;;;5110791;28;19920;-84
2021/06/24 08:26:08;;;;;;;;;;;15.50;99.90;;;;;;5111252;28;19969;-84
2021/06/24 08:28:33;;;;;;;;;;;15.50;99.90;;;;;;5110865;28;19919;-84
2021/06/24 08:31:00;;;;;;;;;;;15.50;99.90;;;;;;5110986;28;19923;-84
2021/06/24 08:33:26;;;;;;;;;;;15.60;99.90;;;;;;5107335;28;19916;-84
2021/06/24 08:35:54;;;;;;;;;;;15.60;99.90;;;;;;5091858;28;20398;-84
2021/06/24 08:38:20;;;;;;;;;;;15.70;99.90;;;;;;5110278;28;20006;-84
2021/06/24 08:40:45;;;;;;;;;;;15.70;99.90;;;;;;5116308;27;19921;-84
2021/06/24 08:43:12;;;;;;;;;;;15.80;99.90;;;;;;5087858;28;19959;-84
2021/06/24 08:45:41;;;;;;;;;;;15.90;99.90;;;;;;5088800;28;19976;-84
2021/06/24 08:48:14;;;;;;;;;;;15.90;99.90;;;;;;5106495;28;19947;-84
2021/06/24 08:50:44;;;;;;;;;;;16.00;99.90;;;;;;5087636;28;20011;-83
2021/06/24 08:53:10;;;;;;;;;;;16.00;99.90;;;;;;5107776;28;19943;-83
2021/06/24 08:55:39;;;;;;;;;;;16.00;99.90;;;;;;5109896;28;19919;-84
2021/06/24 08:58:06;;;;;;;;;;;16.00;99.90;;;;;;5090202;28;19978;-84
2021/06/24 09:00:31;;;;;;;;;;;16.10;99.90;;;;;;5105913;27;19931;-84
2021/06/24 09:03:12;;;;;;;;;;;16.10;99.90;;;;;;5093384;28;19920;-84
2021/06/24 09:05:53;;;;;;;;;;;16.10;99.90;;;;;;5110922;28;20374;-85
2021/06/24 09:08:38;;;;;;;;;;;16.10;99.90;;;;;;5092194;28;19922;-84
2021/06/24 09:11:06;;;;;;;;;;;16.10;99.90;;;;;;5095014;28;20382;-84
2021/06/24 09:13:32;;;;;;;;;;;16.20;99.90;;;;;;5110301;28;19915;-85
2021/06/24 09:16:03;;;;;;;;;;;16.10;99.90;;;;;;5111244;28;20339;-84
2021/06/24 09:18:29;;;;;;;;;;;16.20;99.90;;;;;;5108709;28;19959;-84
2021/06/24 09:20:54;;;;;;;;;;;16.20;99.90;;;;;;5087232;28;19993;-84
2021/06/24 09:23:24;;;;;;;;;;;16.30;99.90;;;;;;5092618;28;19919;-84
2021/06/24 09:26:14;;;;;;;;;;;16.30;99.90;;;;;;5061421;28;20378;-84
2021/06/24 09:28:42;;;;;;;;;;;16.30;99.90;;;;;;5106769;28;19926;-84
2021/06/24 09:31:21;;;;;;;;;;;16.30;99.90;;;;;;5108640;28;20406;-84
2021/06/24 09:33:46;;;;;;;;;;;16.40;99.90;;;;;;5105710;28;20018;-84
2021/06/24 09:36:29;;;;;;;;;;;16.50;99.90;;;;;;5109240;28;20072;-86
2021/06/24 09:38:55;;;;;;;;;;;16.50;99.90;;;;;;5124312;27;19919;-84
2021/06/24 09:41:20;;;;;;;;;;;16.60;99.90;;;;;;5108419;28;19927;-84
2021/06/24 09:43:47;;;;;;;;;;;16.60;99.90;;;;;;5108925;28;19973;-85
2021/06/24 09:46:15;;;;;;;;;;;16.60;99.90;;;;;;5091827;28;20077;-86
2021/06/24 09:48:42;;;;;;;;;;;16.60;99.90;;;;;;5107922;28;20371;-85
2021/06/24 09:51:11;;;;;;;;;;;16.60;99.90;;;;;;5091584;28;19920;-84
2021/06/24 09:54:06;;;;;;;;;;;16.70;99.90;;;;;;5109115;28;20010;-84
2021/06/24 09:56:33;;;;;;;;;;;16.70;99.90;;;;;;5099324;28;20381;-84
2021/06/24 09:59:00;;;;;;;;;;;16.70;99.90;;;;;;5108793;28;19919;-84
2021/06/24 10:01:27;;;;;;;;;;;16.80;99.90;;;;;;5108889;27;19919;-84
2021/06/24 10:03:57;;;;;;;;;;;16.80;99.90;;;;;;5109741;28;20604;-84
2021/06/24 10:06:24;;;;;;;;;;;16.70;99.90;;;;;;5095569;28;20279;-84
2021/06/24 10:08:50;;;;;;;;;;;16.70;99.90;;;;;;5107237;28;19962;-84
2021/06/24 10:11:16;;;;;;;;;;;16.80;99.90;;;;;;5107806;28;19964;-84
2021/06/24 10:13:41;;;;;;;;;;;16.70;99.90;;;;;;5094453;28;19919;-84
2021/06/24 10:16:08;;;;;;;;;;;16.80;99.90;;;;;;5108834;28;20390;-85
2021/06/24 10:18:35;;;;;;;;;;;16.80;99.90;;;;;;5108734;28;20382;-84
2021/06/24 10:21:02;;;;;;;;;;;16.90;99.90;;;;;;5109018;28;20306;-84
2021/06/24 10:23:28;;;;;;;;;;;16.90;99.90;;;;;;5091276;28;19927;-83
2021/06/24 10:25:54;;;;;;;;;;;17.00;99.90;;;;;;5091456;28;20397;-84
2021/06/24 10:28:20;;;;;;;;;;;17.00;99.90;;;;;;5107318;28;19923;-83
2021/06/24 10:30:46;;;;;;;;;;;17.10;99.90;;;;;;5107107;28;19923;-83
2021/06/24 10:33:12;;;;;;;;;;;17.00;99.90;;;;;;5109221;28;20025;-84
2021/06/24 10:35:39;;;;;;;;;;;17.00;99.90;;;;;;5107732;28;20374;-83
2021/06/24 10:38:06;;;;;;;;;;;17.00;99.90;;;;;;5106952;28;19926;-83
2021/06/24 10:40:43;;;;;;;;;;;17.00;99.90;;;;;;5090279;28;19919;-83
2021/06/24 10:43:09;;;;;;;;;;;16.90;99.90;;;;;;5116175;27;19933;-82
2021/06/24 10:45:36;;;;;;;;;;;17.00;99.90;;;;;;5089973;28;19924;-82
2021/06/24 10:48:20;;;;;;;;;;;17.00;99.90;;;;;;5107148;28;20397;-83
2021/06/24 10:50:55;;;;;;;;;;;17.10;99.90;;;;;;5114167;27;20014;-83
2021/06/24 10:53:20;;;;;;;;;;;17.20;99.90;;;;;;5108615;28;19923;-83
2021/06/24 10:55:49;;;;;;;;;;;17.20;99.90;;;;;;5108006;28;19968;-84
2021/06/24 10:58:18;;;;;;;;;;;17.30;99.90;;;;;;5109242;28;19919;-84
2021/06/24 11:00:44;;;;;;;;;;;17.40;99.90;;;;;;5108054;28;19916;-82
2021/06/24 11:03:11;;;;;;;;;;;17.40;99.90;;;;;;5106574;28;19920;-83
2021/06/24 11:05:41;;;;;;;;;;;17.50;99.90;;;;;;5109876;28;19923;-83
2021/06/24 11:08:11;;;;;;;;;;;17.50;99.90;;;;;;5115386;27;20006;-84
2021/06/24 11:10:55;;;;;;;;;;;17.60;99.90;;;;;;5097048;28;19919;-84
2021/06/24 11:13:47;;;;;;;;;;;17.60;99.90;;;;;;5104864;28;19959;-83
2021/06/24 11:16:16;;;;;;;;;;;17.60;99.90;;;;;;5101894;28;19920;-84
2021/06/24 11:18:42;;;;;;;;;;;17.60;99.90;;;;;;5105605;28;20336;-84
2021/06/24 11:21:09;;;;;;;;;;;17.50;99.90;;;;;;5107235;28;19916;-83
2021/06/24 11:23:36;;;;;;;;;;;17.50;99.90;;;;;;5098455;28;19998;-83
2021/06/24 11:26:06;;;;;;;;;;;17.50;99.90;;;;;;5105577;28;19928;-84
2021/06/24 11:28:56;;;;;;;;;;;17.40;99.90;;;;;;5100545;28;19927;-82
2021/06/24 11:31:36;;;;;;;;;;;17.40;99.90;;;;;;5104644;27;19927;-83
2021/06/24 11:36:28;;;;;;;;;;;17.40;99.90;;;;;;5103197;28;19920;-84
2021/06/24 11:38:54;;;;;;;;;;;17.30;99.90;;;;;;5113633;27;19926;-84
2021/06/24 11:41:20;;;;;;;;;;;17.30;99.90;;;;;;5088021;28;19974;-84
2021/06/24 11:43:57;;;;;;;;;;;17.30;99.90;;;;;;5104411;28;19923;-85
2021/06/24 11:46:41;;;;;;;;;;;17.20;99.90;;;;;;5104156;28;19971;-84
2021/06/24 12:00:36;;;;;;;;;;;17.20;99.90;;;;;;5108306;28;19915;-84
2021/06/24 12:03:08;;;;;;;;;;;17.20;99.90;;;;;;5108272;28;19922;-84
2021/06/24 12:05:38;;;;;;;;;;;17.10;99.90;;;;;;5108559;28;19920;-84
2021/06/24 12:08:03;;;;;;;;;;;17.10;99.90;;;;;;5088992;28;19924;-84
2021/06/24 12:10:30;;;;;;;;;;;17.10;99.90;;;;;;5108911;28;19938;-84
2021/06/24 12:12:55;;;;;;;;;;;17.00;99.90;;;;;;5091298;28;19916;-84
2021/06/24 12:15:21;;;;;;;;;;;17.10;99.90;;;;;;5128884;27;19962;-83
2021/06/24 12:17:47;;;;;;;;;;;17.10;99.90;;;;;;5109404;28;19958;-84
2021/06/24 12:20:18;;;;;;;;;;;17.10;99.90;;;;;;5107696;28;19924;-84
2021/06/24 12:22:48;;;;;;;;;;;17.20;99.90;;;;;;5085049;28;19916;-84
2021/06/24 12:25:16;;;;;;;;;;;17.20;99.90;;;;;;5098823;28;19919;-84
2021/06/24 12:27:46;;;;;;;;;;;17.30;99.90;;;;;;5108721;28;19919;-84
2021/06/24 12:30:14;;;;;;;;;;;17.30;99.90;;;;;;5108066;28;19919;-84
2021/06/24 12:32:53;;;;;;;;;;;17.30;99.90;;;;;;5109688;28;19947;-84
2021/06/24 12:35:23;;;;;;;;;;;17.40;99.90;;;;;;5106441;28;19924;-84
2021/06/24 12:37:51;;;;;;;;;;;17.40;99.90;;;;;;5108345;28;19928;-84
2021/06/24 12:40:17;;;;;;;;;;;17.40;99.90;;;;;;5108821;28;19994;-84
2021/06/24 12:42:48;;;;;;;;;;;17.50;99.90;;;;;;5072614;28;20021;-85
2021/06/24 12:45:14;;;;;;;;;;;17.50;99.90;;;;;;5103896;28;20401;-85
2021/06/24 12:47:43;;;;;;;;;;;17.60;99.90;;;;;;5070914;28;19926;-84
2021/06/24 12:50:09;;;;;;;;;;;17.60;99.90;;;;;;5096254;28;20382;-84
2021/06/24 12:52:35;;;;;;;;;;;17.60;99.90;;;;;;5106381;28;19968;-85
2021/06/24 12:55:00;;;;;;;;;;;17.70;99.90;;;;;;5101188;28;19920;-83
2021/06/24 12:57:26;;;;;;;;;;;17.70;99.90;;;;;;5105440;28;20370;-83
2021/06/24 12:59:52;;;;;;;;;;;17.70;99.90;;;;;;5100731;28;19915;-83
2021/06/24 13:02:17;;;;;;;;;;;17.70;99.90;;;;;;5088345;28;19919;-84
2021/06/24 13:04:43;;;;;;;;;;;17.70;99.90;;;;;;5081996;28;19993;-84
2021/06/24 13:07:09;;;;;;;;;;;17.70;99.90;;;;;;5082081;28;19928;-84
2021/06/24 13:09:38;;;;;;;;;;;17.70;99.90;;;;;;5070447;28;19922;-84
2021/06/24 13:12:08;;;;;;;;;;;17.70;99.90;;;;;;5088625;28;20298;-84
2021/06/24 13:14:44;;;;;;;;;;;17.70;99.90;;;;;;5091461;28;19919;-84
2021/06/24 13:17:13;;;;;;;;;;;17.70;99.90;;;;;;5108428;28;20705;-83
2021/06/24 13:19:53;;;;;;;;;;;17.70;99.90;;;;;;5108120;28;19930;-84
2021/06/24 13:22:20;;;;;;;;;;;17.70;99.90;;;;;;5112833;28;19916;-84
2021/06/24 13:24:47;;;;;;;;;;;17.70;99.90;;;;;;5111874;28;20010;-84
2021/06/24 13:27:15;;;;;;;;;;;17.70;99.90;;;;;;5126114;27;19942;-84
2021/06/24 13:29:59;;;;;;;;;;;17.60;99.90;;;;;;5107533;28;19934;-84
2021/06/24 13:32:32;;;;;;;;;;;17.60;99.90;;;;;;5106852;28;19947;-83
2021/06/24 13:35:10;;;;;;;;;;;17.60;99.90;;;;;;5087730;28;20088;-84
2021/06/24 13:37:46;;;;;;;;;;;17.60;99.90;;;;;;5104569;28;19924;-84
2021/06/24 13:40:16;;;;;;;;;;;17.70;99.90;;;;;;5107367;28;19920;-84
2021/06/24 13:42:48;;;;;;;;;;;17.70;99.90;;;;;;5105600;28;19919;-84
2021/06/24 13:45:14;;;;;;;;;;;17.80;99.90;;;;;;5106242;28;19922;-84
2021/06/24 13:47:40;;;;;;;;;;;17.80;99.90;;;;;;5088790;28;20298;-84
2021/06/24 13:50:06;;;;;;;;;;;17.90;99.90;;;;;;5087493;28;19916;-84
2021/06/24 13:52:32;;;;;;;;;;;17.90;99.90;;;;;;5106563;28;19920;-84
2021/06/24 13:54:59;;;;;;;;;;;17.90;99.90;;;;;;5099434;28;19924;-84
2021/06/24 13:57:25;;;;;;;;;;;17.90;99.90;;;;;;5106332;28;20348;-84
2021/06/24 14:00:00;;;;;;;;;;;17.90;99.90;;;;;;5090234;28;19972;-83
2021/06/24 14:02:25;;;;;;;;;;;17.90;99.90;;;;;;5099737;28;19923;-84
2021/06/24 14:04:51;;;;;;;;;;;17.90;99.90;;;;;;5089029;28;20271;-83
2021/06/24 14:07:20;;;;;;;;;;;17.90;99.90;;;;;;5105338;28;19977;-84
2021/06/24 14:09:46;;;;;;;;;;;17.90;99.90;;;;;;5089021;28;19919;-83
2021/06/24 14:12:13;;;;;;;;;;;17.80;99.90;;;;;;5104442;28;20375;-83
2021/06/24 14:14:38;;;;;;;;;;;17.80;99.90;;;;;;5104903;28;20010;-84
2021/06/24 14:17:04;;;;;;;;;;;17.80;99.90;;;;;;5121143;27;19924;-83
2021/06/24 14:19:30;;;;;;;;;;;17.80;99.90;;;;;;5107076;28;20294;-83
2021/06/24 14:22:03;;;;;;;;;;;17.80;99.90;;;;;;5072777;28;19923;-84
2021/06/24 14:24:29;;;;;;;;;;;17.80;99.90;;;;;;5107420;28;20386;-83
2021/06/24 14:26:58;;;;;;;;;;;17.80;99.90;;;;;;5107365;28;19961;-83
2021/06/24 14:29:25;;;;;;;;;;;17.80;99.90;;;;;;5089161;28;19923;-83
2021/06/24 14:31:51;;;;;;;;;;;17.70;99.90;;;;;;5086051;28;19924;-83